Morton S. Bouchard Jr. — WDI5331 — position and weather

sailwx.info

Track history (hours):
 
Tides and Currents Weather Stations Pressure Air Temp Water Temp Dewpoint Dewpoint Depression Visibility Wind Speed Wind Dir Waves Ship Positions

Morton S. Bouchard Jr.

Owner: Tug Morton S. Bouchard Jr. Corp., Melville, NY. More information available from US FCC via Universal Licensing System and Coast Guard Vessel Documentation Center.

Last reported at 2017-Dec-11 10:16 UTC. Time now 2017-Dec-11 15:00 UTC.
Position N 39°02' W 075°09'.

Length 156 m.

MMSI: 367707480.

Date/timePositionNaut miles runAvg speedWind from/ knotsBaromVisibWave heightAir tempDewpointWater temp
2017-Dec-11 10:16N 39°02' W 075°09'3 9.7
2017-Dec-11 10:00N 39°04' W 075°11'5 9.3
2017-Dec-11 09:30N 39°08' W 075°14'4 8.8
2017-Dec-11 09:00N 39°12' W 075°17'4 8.1
2017-Dec-11 08:30N 39°15' W 075°20'4 8.0
2017-Dec-11 08:00N 39°18' W 075°23'4 8.2
2017-Dec-11 07:30N 39°21' W 075°27'4 8.5
2017-Dec-11 07:00N 39°24' W 075°30'4 8.8
2017-Dec-11 06:30N 39°28' W 075°34'5 9.7
2017-Dec-11 06:00N 39°33' W 075°33'3 6.7
2017-Dec-11 05:31N 39°35' W 075°36'0 0.1
2017-Dec-11 05:00N 39°35' W 075°36'0 0.0
2017-Dec-11 04:26N 39°35' W 075°36'0 0.0
2017-Dec-11 03:59N 39°35' W 075°36'0 0.0
2017-Dec-11 03:29N 39°35' W 075°36'0 0.0
2017-Dec-11 02:59N 39°35' W 075°36'0 0.0
2017-Dec-11 02:29N 39°35' W 075°36'0 0.0
2017-Dec-11 01:59N 39°35' W 075°36'0 0.0
2017-Dec-11 01:29N 39°35' W 075°36'0 0.0
2017-Dec-11 00:59N 39°35' W 075°36'0 0.0
2017-Dec-11 00:29N 39°35' W 075°36'0 0.0
2017-Dec-10 23:59N 39°35' W 075°36'0 0.0
2017-Dec-10 23:29N 39°35' W 075°36'0 0.0
2017-Dec-10 22:59N 39°35' W 075°36'0 0.0
2017-Dec-10 22:29N 39°35' W 075°36'0 0.0
2017-Dec-10 21:59N 39°35' W 075°36'0 0.0
2017-Dec-10 21:29N 39°35' W 075°36'0 0.0
2017-Dec-10 20:59N 39°35' W 075°36'0 0.0
2017-Dec-10 20:29N 39°35' W 075°36'0 0.0
2017-Dec-10 19:59N 39°35' W 075°36'0 0.0
2017-Dec-10 19:29N 39°35' W 075°36'0 0.0
2017-Dec-10 18:59N 39°35' W 075°36'0 0.0
2017-Dec-10 18:29N 39°35' W 075°36'0 0.0
2017-Dec-10 17:59N 39°35' W 075°36'0 0.0
2017-Dec-10 17:29N 39°35' W 075°36'0 0.0
2017-Dec-10 16:59N 39°35' W 075°36'0 0.0
2017-Dec-10 16:29N 39°35' W 075°36'0 0.0
2017-Dec-10 15:59N 39°35' W 075°36'0 0.0
2017-Dec-10 15:26N 39°35' W 075°36'0 0.0
2017-Dec-10 14:59N 39°35' W 075°36'0 0.0
2017-Dec-10 14:29N 39°35' W 075°36'0 0.0
2017-Dec-10 13:59N 39°35' W 075°36'0 0.0
2017-Dec-10 13:29N 39°35' W 075°36'0 0.0
2017-Dec-10 12:59N 39°35' W 075°36'0 0.0
2017-Dec-10 12:29N 39°35' W 075°36'0 0.0
2017-Dec-10 11:59N 39°35' W 075°36'0 0.0
2017-Dec-10 11:29N 39°35' W 075°36'0 0.0
2017-Dec-10 10:59N 39°35' W 075°36'0 0.0
2017-Dec-10 10:29N 39°35' W 075°36'0 0.0
2017-Dec-10 09:59N 39°35' W 075°36'0 0.0
2017-Dec-10 09:29N 39°35' W 075°36'0 0.0
2017-Dec-10 08:59N 39°35' W 075°36'0 0.0
2017-Dec-10 08:29N 39°35' W 075°36'0 0.0
2017-Dec-10 07:59N 39°35' W 075°36'0 0.0
2017-Dec-10 07:29N 39°35' W 075°36'0 0.0
2017-Dec-10 06:59N 39°35' W 075°36'0 0.0
2017-Dec-10 06:26N 39°35' W 075°36'0 0.0
2017-Dec-10 05:59N 39°35' W 075°36'0 0.0
2017-Dec-10 05:29N 39°35' W 075°36'0 0.0
2017-Dec-10 04:59N 39°35' W 075°36'0 0.0
2017-Dec-10 04:29N 39°35' W 075°36'0 0.0
2017-Dec-10 03:59N 39°35' W 075°36'0 0.0
2017-Dec-10 03:29N 39°35' W 075°36'0 0.0
2017-Dec-10 02:59N 39°35' W 075°36'0 0.0
2017-Dec-10 02:29N 39°35' W 075°36'0 0.0
2017-Dec-10 01:59N 39°35' W 075°36'0 0.0
2017-Dec-10 01:29N 39°35' W 075°36'0 0.0
2017-Dec-10 00:59N 39°35' W 075°36'0 0.0
2017-Dec-10 00:29N 39°35' W 075°36'0 0.0
2017-Dec-09 23:59N 39°35' W 075°36'0 0.0
2017-Dec-09 23:29N 39°35' W 075°36'0 0.0
2017-Dec-09 22:59N 39°35' W 075°36'0 0.0
2017-Dec-09 22:29N 39°35' W 075°36'0 0.0
2017-Dec-09 21:59N 39°35' W 075°36'0 0.0
2017-Dec-09 21:29N 39°35' W 075°36'0 0.0
2017-Dec-09 20:59N 39°35' W 075°36'0 0.0
2017-Dec-09 20:29N 39°35' W 075°36'0 0.0
2017-Dec-09 19:59N 39°35' W 075°36'0 0.0
2017-Dec-09 19:29N 39°35' W 075°36'0 0.0
2017-Dec-09 18:59N 39°35' W 075°36'0 0.0
2017-Dec-09 18:29N 39°35' W 075°36'0 0.0
2017-Dec-09 17:59N 39°35' W 075°36'0 0.0
2017-Dec-09 17:29N 39°35' W 075°36'0 0.0
2017-Dec-09 16:59N 39°35' W 075°36'0 0.0
2017-Dec-09 16:29N 39°35' W 075°36'0 0.0
2017-Dec-09 15:59N 39°35' W 075°36'0 0.0
2017-Dec-09 15:30N 39°35' W 075°36'1 2.8
2017-Dec-09 15:00N 39°34' W 075°34'4 7.1
2017-Dec-09 14:30N 39°31' W 075°33'1 1.7
2017-Dec-09 14:01N 39°30' W 075°33'0 0.0
2017-Dec-09 13:30N 39°30' W 075°33'0 0.0
2017-Dec-09 12:59N 39°30' W 075°33'0 0.0
2017-Dec-09 12:29N 39°30' W 075°33'0 0.0
2017-Dec-09 11:59N 39°30' W 075°33'0 0.0
2017-Dec-09 11:29N 39°30' W 075°33'0 0.2
2017-Dec-09 10:59N 39°30' W 075°33'0 0.0
2017-Dec-09 10:29N 39°30' W 075°33'0 0.2
2017-Dec-09 09:59N 39°30' W 075°33'0 0.2
2017-Dec-09 09:29N 39°30' W 075°33'0 0.1
2017-Dec-09 08:59N 39°30' W 075°33'0 0.0
2017-Dec-09 08:29N 39°30' W 075°33'0 0.0
2017-Dec-09 07:59N 39°30' W 075°33'0 0.0
2017-Dec-09 07:29N 39°30' W 075°33'0 0.1
2017-Dec-09 07:00N 39°30' W 075°33'3 6.5
2017-Dec-09 06:30N 39°27' W 075°33'611.8
2017-Dec-09 06:00N 39°23' W 075°28'611.7
2017-Dec-09 05:30N 39°18' W 075°23'611.4
2017-Dec-09 05:00N 39°14' W 075°18'611.4
2017-Dec-09 04:30N 39°09' W 075°15'611.3
2017-Dec-09 04:00N 39°04' W 075°10'58 7.1
2017-Dec-08 19:50N 39°33' W 074°06'310.0
2017-Dec-08 19:31N 39°36' W 074°04'510.0
2017-Dec-08 19:00N 39°40' W 074°01'5 9.9
2017-Dec-08 18:29N 39°45' W 073°57'44 9.4
2017-Dec-08 13:49N 40°29' W 073°59'2 7.9
2017-Dec-08 13:31N 40°28' W 074°02'10 6.4
2017-Dec-08 11:53N 40°33' W 074°14'3 7.1
2017-Dec-08 11:25N 40°36' W 074°12'0 1.0
2017-Dec-08 10:56N 40°37' W 074°12'0 0.0
2017-Dec-07 05:10N 40°37' W 074°12'0 0.0
2017-Dec-07 05:00N 40°37' W 074°12'0 0.1
2017-Dec-07 04:30N 40°37' W 074°12'2 4.5
2017-Dec-07 03:59N 40°39' W 074°11'4 7.7
2017-Dec-07 03:30N 40°39' W 074°06'2 4.8
2017-Dec-07 03:00N 40°39' W 074°03'0 0.1
2017-Dec-07 02:30N 40°39' W 074°03'1 1.3
2017-Dec-07 02:00N 40°40' W 074°03'0 0.1
2017-Dec-07 01:28N 40°40' W 074°02'0 0.3
2017-Dec-07 00:58N 40°40' W 074°03'0 0.1
2017-Dec-07 00:28N 40°40' W 074°03'0 0.1
2017-Dec-06 23:58N 40°40' W 074°03'0 0.0
2017-Dec-06 23:25N 40°40' W 074°03'0 0.0
2017-Dec-06 22:58N 40°40' W 074°03'0 0.0
2017-Dec-06 22:28N 40°40' W 074°03'0 0.0
2017-Dec-06 21:58N 40°40' W 074°03'0 0.0
2017-Dec-06 21:28N 40°40' W 074°03'0 0.0
2017-Dec-06 20:58N 40°40' W 074°03'  
2017-Dec-04 10:28N 40°39' W 074°03'0 0.0
2017-Dec-04 09:58N 40°39' W 074°03'0 0.0
2017-Dec-04 09:28N 40°39' W 074°03'0 0.2
2017-Dec-04 08:58N 40°39' W 074°03'0 0.2
2017-Dec-04 08:28N 40°39' W 074°03'0 0.1
2017-Dec-04 07:58N 40°39' W 074°03'0 0.1
2017-Dec-04 07:28N 40°39' W 074°03'0 0.0
2017-Dec-04 06:58N 40°39' W 074°03'0 0.0
2017-Dec-04 06:28N 40°39' W 074°03'0 0.0
2017-Dec-04 05:58N 40°39' W 074°03'0 0.0
2017-Dec-04 05:28N 40°39' W 074°03'0 0.0
2017-Dec-04 04:58N 40°39' W 074°03'0 0.0
2017-Dec-04 04:28N 40°39' W 074°03'0 0.0
2017-Dec-04 03:58N 40°39' W 074°03'0 0.0
2017-Dec-04 03:28N 40°39' W 074°03'0 0.1
2017-Dec-04 02:58N 40°39' W 074°03'0 0.2
2017-Dec-04 02:28N 40°39' W 074°03'0 0.1
2017-Dec-04 01:58N 40°39' W 074°03'0 0.1
2017-Dec-04 01:28N 40°39' W 074°03'0 0.0
2017-Dec-04 00:46N 40°39' W 074°03'0 0.0
2017-Dec-04 00:28N 40°39' W 074°03'0 0.0
2017-Dec-03 23:55N 40°39' W 074°03'0 0.0
2017-Dec-03 23:25N 40°39' W 074°03'0 0.0
2017-Dec-03 22:58N 40°39' W 074°03'0 0.0
2017-Dec-03 22:28N 40°39' W 074°03'0 0.0
2017-Dec-03 21:52N 40°39' W 074°03'0 0.2
2017-Dec-03 21:28N 40°39' W 074°03'0 0.2
2017-Dec-03 20:58N 40°39' W 074°03'0 0.2
2017-Dec-03 20:28N 40°39' W 074°03'0 0.1
2017-Dec-03 19:58N 40°39' W 074°03'0 0.1
2017-Dec-03 19:28N 40°39' W 074°03'0 0.0
2017-Dec-03 18:58N 40°39' W 074°03'0 0.0
2017-Dec-03 18:28N 40°39' W 074°03'0 0.0
2017-Dec-03 17:58N 40°39' W 074°03'0 0.0
2017-Dec-03 17:28N 40°39' W 074°03'0 0.0
2017-Dec-03 16:58N 40°39' W 074°03'0 0.0
2017-Dec-03 16:28N 40°39' W 074°03'0 0.0
2017-Dec-03 15:58N 40°39' W 074°03'1 1.3
2017-Dec-03 15:30N 40°38' W 074°03'3 6.9
2017-Dec-03 15:00N 40°35' W 074°02'4 7.9
2017-Dec-03 14:29N 40°31' W 073°59'4 8.4
2017-Dec-03 13:58N 40°29' W 073°54'43 9.2
2017-Dec-03 09:20N 39°46' W 073°58'3 9.7
2017-Dec-03 08:59N 39°43' W 073°59'5 9.6
2017-Dec-03 08:30N 39°39' W 074°02'5 9.5
2017-Dec-03 07:57N 39°35' W 074°05'60 5.6
2017-Dec-02 21:14N 39°11' W 075°17'1 4.0
2017-Dec-02 21:00N 39°12' W 075°17'913.0
2017-Dec-02 20:17N 39°19' W 075°24'513.6
2017-Dec-02 19:54N 39°23' W 075°29'410.3
2017-Dec-02 19:29N 39°26' W 075°33'3 5.4
2017-Dec-02 19:00N 39°29' W 075°34'611.0
2017-Dec-02 18:30N 39°34' W 075°33'5 9.3
2017-Dec-02 18:00N 39°39' W 075°33'510.1
2017-Dec-02 17:30N 39°44' W 075°30'510.5
2017-Dec-02 17:00N 39°48' W 075°26'5 9.0
2017-Dec-02 16:28N 39°51' W 075°21'3 7.0
2017-Dec-02 15:57N 39°51' W 075°16'1 2.5
2017-Dec-02 15:30N 39°51' W 075°15'0 0.0
2017-Dec-02 12:21N 39°51' W 075°15'0 0.0
2017-Dec-02 10:55N 39°51' W 075°15'0 0.0
2017-Dec-02 08:17N 39°51' W 075°15'0 0.0
2017-Dec-02 06:39N 39°51' W 075°15'0 0.0
2017-Dec-02 05:31N 39°51' W 075°15'0 0.0
2017-Dec-02 05:16N 39°51' W 075°15'0 0.0
2017-Dec-02 04:11N 39°51' W 075°15'0 0.0
2017-Dec-02 02:23N 39°51' W 075°15'0 0.0
2017-Dec-02 01:59N 39°51' W 075°15'0 0.0
2017-Dec-02 01:10N 39°51' W 075°15'0 0.0
2017-Dec-01 23:36N 39°51' W 075°15'0 0.0
2017-Dec-01 23:18N 39°51' W 075°15'0 0.0
2017-Dec-01 22:57N 39°51' W 075°15'0 0.0
2017-Dec-01 22:30N 39°51' W 075°15'0 0.0
2017-Dec-01 21:57N 39°51' W 075°15'0 0.0
2017-Dec-01 21:27N 39°51' W 075°15'0 0.0
2017-Dec-01 21:00N 39°51' W 075°15'0 0.0
2017-Dec-01 20:15N 39°51' W 075°15'0 0.0
2017-Dec-01 19:54N 39°51' W 075°15'0 0.0
2017-Dec-01 19:27N 39°51' W 075°15'0 0.0
2017-Dec-01 19:00N 39°51' W 075°15'0 0.0
2017-Dec-01 18:30N 39°51' W 075°15'0 0.0
2017-Dec-01 17:57N 39°51' W 075°15'0 0.0
2017-Dec-01 17:30N 39°51' W 075°15'0 0.0
2017-Dec-01 17:00N 39°51' W 075°15'0 0.0
2017-Dec-01 16:30N 39°51' W 075°15'0 0.0
2017-Dec-01 16:00N 39°51' W 075°15'0 0.0
2017-Dec-01 15:27N 39°51' W 075°15'0 0.0
2017-Dec-01 15:00N 39°51' W 075°15'0 0.0
2017-Dec-01 14:27N 39°51' W 075°15'0 0.0
2017-Dec-01 14:00N 39°51' W 075°15'0 0.0
2017-Dec-01 13:27N 39°51' W 075°15'0 0.0
2017-Dec-01 13:00N 39°51' W 075°15'0 0.0
2017-Dec-01 12:30N 39°51' W 075°15'0 0.0
2017-Dec-01 11:57N 39°51' W 075°15'0 0.0
2017-Dec-01 11:24N 39°51' W 075°15'0 0.0
2017-Dec-01 11:00N 39°51' W 075°15'0 0.0
2017-Dec-01 10:30N 39°51' W 075°15'  
Track history (hours):
 
Tides and Currents Weather Stations Pressure Air Temp Water Temp Dewpoint Dewpoint Depression Visibility Wind Speed Wind Dir Waves Ship Positions

Morton S. Bouchard Jr.

Owner: Tug Morton S. Bouchard Jr. Corp., Melville, NY. More information available from US FCC via Universal Licensing System and Coast Guard Vessel Documentation Center.

Last reported at 2017-Dec-11 10:16 UTC. Time now 2017-Dec-11 15:00 UTC.
Position N 39°02' W 075°09'.

Length 156 m.

MMSI: 367707480.

Date/timePositionNaut miles runAvg speedWind from/ knotsBaromVisibWave heightAir tempDewpointWater temp
2017-Dec-11 10:16N 39°02' W 075°09'3 9.7
2017-Dec-11 10:00N 39°04' W 075°11'5 9.3
2017-Dec-11 09:30N 39°08' W 075°14'4 8.8
2017-Dec-11 09:00N 39°12' W 075°17'4 8.1
2017-Dec-11 08:30N 39°15' W 075°20'4 8.0
2017-Dec-11 08:00N 39°18' W 075°23'4 8.2
2017-Dec-11 07:30N 39°21' W 075°27'4 8.5
2017-Dec-11 07:00N 39°24' W 075°30'4 8.8
2017-Dec-11 06:30N 39°28' W 075°34'5 9.7
2017-Dec-11 06:00N 39°33' W 075°33'3 6.7
2017-Dec-11 05:31N 39°35' W 075°36'0 0.1
2017-Dec-11 05:00N 39°35' W 075°36'0 0.0
2017-Dec-11 04:26N 39°35' W 075°36'0 0.0
2017-Dec-11 03:59N 39°35' W 075°36'0 0.0
2017-Dec-11 03:29N 39°35' W 075°36'0 0.0
2017-Dec-11 02:59N 39°35' W 075°36'0 0.0
2017-Dec-11 02:29N 39°35' W 075°36'0 0.0
2017-Dec-11 01:59N 39°35' W 075°36'0 0.0
2017-Dec-11 01:29N 39°35' W 075°36'0 0.0
2017-Dec-11 00:59N 39°35' W 075°36'0 0.0
2017-Dec-11 00:29N 39°35' W 075°36'0 0.0
2017-Dec-10 23:59N 39°35' W 075°36'0 0.0
2017-Dec-10 23:29N 39°35' W 075°36'0 0.0
2017-Dec-10 22:59N 39°35' W 075°36'0 0.0
2017-Dec-10 22:29N 39°35' W 075°36'0 0.0
2017-Dec-10 21:59N 39°35' W 075°36'0 0.0
2017-Dec-10 21:29N 39°35' W 075°36'0 0.0
2017-Dec-10 20:59N 39°35' W 075°36'0 0.0
2017-Dec-10 20:29N 39°35' W 075°36'0 0.0
2017-Dec-10 19:59N 39°35' W 075°36'0 0.0
2017-Dec-10 19:29N 39°35' W 075°36'0 0.0
2017-Dec-10 18:59N 39°35' W 075°36'0 0.0
2017-Dec-10 18:29N 39°35' W 075°36'0 0.0
2017-Dec-10 17:59N 39°35' W 075°36'0 0.0
2017-Dec-10 17:29N 39°35' W 075°36'0 0.0
2017-Dec-10 16:59N 39°35' W 075°36'0 0.0
2017-Dec-10 16:29N 39°35' W 075°36'0 0.0
2017-Dec-10 15:59N 39°35' W 075°36'0 0.0
2017-Dec-10 15:26N 39°35' W 075°36'0 0.0
2017-Dec-10 14:59N 39°35' W 075°36'0 0.0
2017-Dec-10 14:29N 39°35' W 075°36'0 0.0
2017-Dec-10 13:59N 39°35' W 075°36'0 0.0
2017-Dec-10 13:29N 39°35' W 075°36'0 0.0
2017-Dec-10 12:59N 39°35' W 075°36'0 0.0
2017-Dec-10 12:29N 39°35' W 075°36'0 0.0
2017-Dec-10 11:59N 39°35' W 075°36'0 0.0
2017-Dec-10 11:29N 39°35' W 075°36'0 0.0
2017-Dec-10 10:59N 39°35' W 075°36'0 0.0
2017-Dec-10 10:29N 39°35' W 075°36'0 0.0
2017-Dec-10 09:59N 39°35' W 075°36'0 0.0
2017-Dec-10 09:29N 39°35' W 075°36'0 0.0
2017-Dec-10 08:59N 39°35' W 075°36'0 0.0
2017-Dec-10 08:29N 39°35' W 075°36'0 0.0
2017-Dec-10 07:59N 39°35' W 075°36'0 0.0
2017-Dec-10 07:29N 39°35' W 075°36'0 0.0
2017-Dec-10 06:59N 39°35' W 075°36'0 0.0
2017-Dec-10 06:26N 39°35' W 075°36'0 0.0
2017-Dec-10 05:59N 39°35' W 075°36'0 0.0
2017-Dec-10 05:29N 39°35' W 075°36'0 0.0
2017-Dec-10 04:59N 39°35' W 075°36'0 0.0
2017-Dec-10 04:29N 39°35' W 075°36'0 0.0
2017-Dec-10 03:59N 39°35' W 075°36'0 0.0
2017-Dec-10 03:29N 39°35' W 075°36'0 0.0
2017-Dec-10 02:59N 39°35' W 075°36'0 0.0
2017-Dec-10 02:29N 39°35' W 075°36'0 0.0
2017-Dec-10 01:59N 39°35' W 075°36'0 0.0
2017-Dec-10 01:29N 39°35' W 075°36'0 0.0
2017-Dec-10 00:59N 39°35' W 075°36'0 0.0
2017-Dec-10 00:29N 39°35' W 075°36'0 0.0
2017-Dec-09 23:59N 39°35' W 075°36'0 0.0
2017-Dec-09 23:29N 39°35' W 075°36'0 0.0
2017-Dec-09 22:59N 39°35' W 075°36'0 0.0
2017-Dec-09 22:29N 39°35' W 075°36'0 0.0
2017-Dec-09 21:59N 39°35' W 075°36'0 0.0
2017-Dec-09 21:29N 39°35' W 075°36'0 0.0
2017-Dec-09 20:59N 39°35' W 075°36'0 0.0
2017-Dec-09 20:29N 39°35' W 075°36'0 0.0
2017-Dec-09 19:59N 39°35' W 075°36'0 0.0
2017-Dec-09 19:29N 39°35' W 075°36'0 0.0
2017-Dec-09 18:59N 39°35' W 075°36'0 0.0
2017-Dec-09 18:29N 39°35' W 075°36'0 0.0
2017-Dec-09 17:59N 39°35' W 075°36'0 0.0
2017-Dec-09 17:29N 39°35' W 075°36'0 0.0
2017-Dec-09 16:59N 39°35' W 075°36'0 0.0
2017-Dec-09 16:29N 39°35' W 075°36'0 0.0
2017-Dec-09 15:59N 39°35' W 075°36'0 0.0
2017-Dec-09 15:30N 39°35' W 075°36'1 2.8
2017-Dec-09 15:00N 39°34' W 075°34'4 7.1
2017-Dec-09 14:30N 39°31' W 075°33'1 1.7
2017-Dec-09 14:01N 39°30' W 075°33'0 0.0
2017-Dec-09 13:30N 39°30' W 075°33'0 0.0
2017-Dec-09 12:59N 39°30' W 075°33'0 0.0
2017-Dec-09 12:29N 39°30' W 075°33'0 0.0
2017-Dec-09 11:59N 39°30' W 075°33'0 0.0
2017-Dec-09 11:29N 39°30' W 075°33'0 0.2
2017-Dec-09 10:59N 39°30' W 075°33'0 0.0
2017-Dec-09 10:29N 39°30' W 075°33'0 0.2
2017-Dec-09 09:59N 39°30' W 075°33'0 0.2
2017-Dec-09 09:29N 39°30' W 075°33'0 0.1
2017-Dec-09 08:59N 39°30' W 075°33'0 0.0
2017-Dec-09 08:29N 39°30' W 075°33'0 0.0
2017-Dec-09 07:59N 39°30' W 075°33'0 0.0
2017-Dec-09 07:29N 39°30' W 075°33'0 0.1
2017-Dec-09 07:00N 39°30' W 075°33'3 6.5
2017-Dec-09 06:30N 39°27' W 075°33'611.8
2017-Dec-09 06:00N 39°23' W 075°28'611.7
2017-Dec-09 05:30N 39°18' W 075°23'611.4
2017-Dec-09 05:00N 39°14' W 075°18'611.4
2017-Dec-09 04:30N 39°09' W 075°15'611.3
2017-Dec-09 04:00N 39°04' W 075°10'58 7.1
2017-Dec-08 19:50N 39°33' W 074°06'310.0
2017-Dec-08 19:31N 39°36' W 074°04'510.0
2017-Dec-08 19:00N 39°40' W 074°01'5 9.9
2017-Dec-08 18:29N 39°45' W 073°57'44 9.4
2017-Dec-08 13:49N 40°29' W 073°59'2 7.9
2017-Dec-08 13:31N 40°28' W 074°02'10 6.4
2017-Dec-08 11:53N 40°33' W 074°14'3 7.1
2017-Dec-08 11:25N 40°36' W 074°12'0 1.0
2017-Dec-08 10:56N 40°37' W 074°12'0 0.0
2017-Dec-07 05:10N 40°37' W 074°12'0 0.0
2017-Dec-07 05:00N 40°37' W 074°12'0 0.1
2017-Dec-07 04:30N 40°37' W 074°12'2 4.5
2017-Dec-07 03:59N 40°39' W 074°11'4 7.7
2017-Dec-07 03:30N 40°39' W 074°06'2 4.8
2017-Dec-07 03:00N 40°39' W 074°03'0 0.1
2017-Dec-07 02:30N 40°39' W 074°03'1 1.3
2017-Dec-07 02:00N 40°40' W 074°03'0 0.1
2017-Dec-07 01:28N 40°40' W 074°02'0 0.3
2017-Dec-07 00:58N 40°40' W 074°03'0 0.1
2017-Dec-07 00:28N 40°40' W 074°03'0 0.1
2017-Dec-06 23:58N 40°40' W 074°03'0 0.0
2017-Dec-06 23:25N 40°40' W 074°03'0 0.0
2017-Dec-06 22:58N 40°40' W 074°03'0 0.0
2017-Dec-06 22:28N 40°40' W 074°03'0 0.0
2017-Dec-06 21:58N 40°40' W 074°03'0 0.0
2017-Dec-06 21:28N 40°40' W 074°03'0 0.0
2017-Dec-06 20:58N 40°40' W 074°03'  
2017-Dec-04 10:28N 40°39' W 074°03'0 0.0
2017-Dec-04 09:58N 40°39' W 074°03'0 0.0
2017-Dec-04 09:28N 40°39' W 074°03'0 0.2
2017-Dec-04 08:58N 40°39' W 074°03'0 0.2
2017-Dec-04 08:28N 40°39' W 074°03'0 0.1
2017-Dec-04 07:58N 40°39' W 074°03'0 0.1
2017-Dec-04 07:28N 40°39' W 074°03'0 0.0
2017-Dec-04 06:58N 40°39' W 074°03'0 0.0
2017-Dec-04 06:28N 40°39' W 074°03'0 0.0
2017-Dec-04 05:58N 40°39' W 074°03'0 0.0
2017-Dec-04 05:28N 40°39' W 074°03'0 0.0
2017-Dec-04 04:58N 40°39' W 074°03'0 0.0
2017-Dec-04 04:28N 40°39' W 074°03'0 0.0
2017-Dec-04 03:58N 40°39' W 074°03'0 0.0
2017-Dec-04 03:28N 40°39' W 074°03'0 0.1
2017-Dec-04 02:58N 40°39' W 074°03'0 0.2
2017-Dec-04 02:28N 40°39' W 074°03'0 0.1
2017-Dec-04 01:58N 40°39' W 074°03'0 0.1
2017-Dec-04 01:28N 40°39' W 074°03'0 0.0
2017-Dec-04 00:46N 40°39' W 074°03'0 0.0
2017-Dec-04 00:28N 40°39' W 074°03'0 0.0
2017-Dec-03 23:55N 40°39' W 074°03'0 0.0
2017-Dec-03 23:25N 40°39' W 074°03'0 0.0
2017-Dec-03 22:58N 40°39' W 074°03'0 0.0
2017-Dec-03 22:28N 40°39' W 074°03'0 0.0
2017-Dec-03 21:52N 40°39' W 074°03'0 0.2
2017-Dec-03 21:28N 40°39' W 074°03'0 0.2
2017-Dec-03 20:58N 40°39' W 074°03'0 0.2
2017-Dec-03 20:28N 40°39' W 074°03'0 0.1
2017-Dec-03 19:58N 40°39' W 074°03'0 0.1
2017-Dec-03 19:28N 40°39' W 074°03'0 0.0
2017-Dec-03 18:58N 40°39' W 074°03'0 0.0
2017-Dec-03 18:28N 40°39' W 074°03'0 0.0
2017-Dec-03 17:58N 40°39' W 074°03'0 0.0
2017-Dec-03 17:28N 40°39' W 074°03'0 0.0
2017-Dec-03 16:58N 40°39' W 074°03'0 0.0
2017-Dec-03 16:28N 40°39' W 074°03'0 0.0
2017-Dec-03 15:58N 40°39' W 074°03'1 1.3
2017-Dec-03 15:30N 40°38' W 074°03'3 6.9
2017-Dec-03 15:00N 40°35' W 074°02'4 7.9
2017-Dec-03 14:29N 40°31' W 073°59'4 8.4
2017-Dec-03 13:58N 40°29' W 073°54'43 9.2
2017-Dec-03 09:20N 39°46' W 073°58'3 9.7
2017-Dec-03 08:59N 39°43' W 073°59'5 9.6
2017-Dec-03 08:30N 39°39' W 074°02'5 9.5
2017-Dec-03 07:57N 39°35' W 074°05'60 5.6
2017-Dec-02 21:14N 39°11' W 075°17'1 4.0
2017-Dec-02 21:00N 39°12' W 075°17'913.0
2017-Dec-02 20:17N 39°19' W 075°24'513.6
2017-Dec-02 19:54N 39°23' W 075°29'410.3
2017-Dec-02 19:29N 39°26' W 075°33'3 5.4
2017-Dec-02 19:00N 39°29' W 075°34'611.0
2017-Dec-02 18:30N 39°34' W 075°33'5 9.3
2017-Dec-02 18:00N 39°39' W 075°33'510.1
2017-Dec-02 17:30N 39°44' W 075°30'510.5
2017-Dec-02 17:00N 39°48' W 075°26'5 9.0
2017-Dec-02 16:28N 39°51' W 075°21'3 7.0
2017-Dec-02 15:57N 39°51' W 075°16'1 2.5
2017-Dec-02 15:30N 39°51' W 075°15'0 0.0
2017-Dec-02 12:21N 39°51' W 075°15'0 0.0
2017-Dec-02 10:55N 39°51' W 075°15'0 0.0
2017-Dec-02 08:17N 39°51' W 075°15'0 0.0
2017-Dec-02 06:39N 39°51' W 075°15'0 0.0
2017-Dec-02 05:31N 39°51' W 075°15'0 0.0
2017-Dec-02 05:16N 39°51' W 075°15'0 0.0
2017-Dec-02 04:11N 39°51' W 075°15'0 0.0
2017-Dec-02 02:23N 39°51' W 075°15'0 0.0
2017-Dec-02 01:59N 39°51' W 075°15'0 0.0
2017-Dec-02 01:10N 39°51' W 075°15'0 0.0
2017-Dec-01 23:36N 39°51' W 075°15'0 0.0
2017-Dec-01 23:18N 39°51' W 075°15'0 0.0
2017-Dec-01 22:57N 39°51' W 075°15'0 0.0
2017-Dec-01 22:30N 39°51' W 075°15'0 0.0
2017-Dec-01 21:57N 39°51' W 075°15'0 0.0
2017-Dec-01 21:27N 39°51' W 075°15'0 0.0
2017-Dec-01 21:00N 39°51' W 075°15'0 0.0
2017-Dec-01 20:15N 39°51' W 075°15'0 0.0
2017-Dec-01 19:54N 39°51' W 075°15'0 0.0
2017-Dec-01 19:27N 39°51' W 075°15'0 0.0
2017-Dec-01 19:00N 39°51' W 075°15'0 0.0
2017-Dec-01 18:30N 39°51' W 075°15'0 0.0
2017-Dec-01 17:57N 39°51' W 075°15'0 0.0
2017-Dec-01 17:30N 39°51' W 075°15'0 0.0
2017-Dec-01 17:00N 39°51' W 075°15'0 0.0
2017-Dec-01 16:30N 39°51' W 075°15'0 0.0
2017-Dec-01 16:00N 39°51' W 075°15'0 0.0
2017-Dec-01 15:27N 39°51' W 075°15'0 0.0
2017-Dec-01 15:00N 39°51' W 075°15'0 0.0
2017-Dec-01 14:27N 39°51' W 075°15'0 0.0
2017-Dec-01 14:00N 39°51' W 075°15'0 0.0
2017-Dec-01 13:27N 39°51' W 075°15'0 0.0
2017-Dec-01 13:00N 39°51' W 075°15'0 0.0
2017-Dec-01 12:30N 39°51' W 075°15'0 0.0
2017-Dec-01 11:57N 39°51' W 075°15'0 0.0
2017-Dec-01 11:24N 39°51' W 075°15'0 0.0
2017-Dec-01 11:00N 39°51' W 075°15'0 0.0
2017-Dec-01 10:30N 39°51' W 075°15'  

Dump ship's entire track history